createdAt,value
2018-06-14T00:00:58.571Z,16.28
2018-06-14T00:03:27.247Z,16.11
2018-06-14T00:05:56.367Z,16.15
2018-06-14T00:08:25.021Z,16.15
2018-06-14T00:10:53.610Z,16.11
2018-06-14T00:13:22.573Z,16.15
2018-06-14T00:15:53.610Z,16.07
2018-06-14T00:18:30.668Z,16.14
2018-06-14T00:21:05.989Z,16.04
2018-06-14T00:26:16.535Z,16.03
2018-06-14T00:28:50.638Z,15.98
2018-06-14T00:31:20.315Z,15.97
2018-06-14T00:33:50.882Z,16.02
2018-06-14T00:36:27.981Z,15.96
2018-06-14T00:39:02.518Z,16.05
2018-06-14T00:41:37.556Z,15.95
2018-06-14T00:44:07.932Z,15.98
2018-06-14T00:59:27.603Z,15.85
2018-06-14T01:01:56.265Z,15.86
2018-06-14T01:04:24.857Z,15.86
2018-06-14T01:06:53.512Z,15.87
2018-06-14T01:09:22.146Z,15.84
2018-06-14T01:11:51.030Z,15.87
2018-06-14T01:14:19.696Z,15.81
2018-06-14T01:16:48.334Z,15.83
2018-06-14T01:19:16.992Z,15.76
2018-06-14T01:21:45.733Z,15.81
2018-06-14T01:24:14.370Z,15.82
2018-06-14T01:26:43.055Z,15.87
2018-06-14T01:29:11.641Z,15.79
2018-06-14T01:31:40.257Z,15.82
2018-06-14T01:34:08.897Z,15.81
2018-06-14T01:36:37.496Z,15.79
2018-06-14T01:39:08.497Z,15.83
2018-06-14T01:41:37.320Z,15.73
2018-06-14T01:44:05.930Z,15.76
2018-06-14T01:46:34.997Z,15.80
2018-06-14T01:49:03.599Z,15.84
2018-06-14T01:51:32.235Z,15.81
2018-06-14T01:54:00.945Z,15.82
2018-06-14T01:56:29.609Z,15.81
2018-06-14T01:58:58.533Z,15.80
2018-06-14T02:01:27.122Z,15.79
2018-06-14T02:03:55.770Z,15.79
2018-06-14T02:06:24.374Z,15.75
2018-06-14T02:08:52.975Z,15.78
2018-06-14T02:11:21.666Z,15.79
2018-06-14T02:13:50.231Z,15.85
2018-06-14T02:16:18.842Z,15.84
2018-06-14T02:18:47.434Z,15.79
2018-06-14T02:21:16.073Z,15.73
2018-06-14T02:23:44.657Z,15.79
2018-06-14T02:26:13.313Z,15.87
2018-06-14T02:28:41.905Z,15.86
2018-06-14T02:31:10.522Z,15.74
2018-06-14T02:33:39.234Z,15.66
2018-06-14T02:36:14.042Z,15.70
2018-06-14T02:38:42.837Z,15.66
2018-06-14T02:41:12.010Z,15.70
2018-06-14T02:43:40.623Z,15.63
2018-06-14T02:46:09.545Z,15.68
2018-06-14T02:48:38.117Z,15.69
2018-06-14T02:51:07.286Z,15.71
2018-06-14T02:53:35.904Z,15.55
2018-06-14T02:56:04.565Z,15.66
2018-06-14T02:58:33.194Z,15.54
2018-06-14T03:01:01.902Z,15.58
2018-06-14T03:03:30.575Z,15.55
2018-06-14T03:05:59.208Z,15.61
2018-06-14T03:08:27.838Z,15.63
2018-06-14T03:10:56.480Z,15.63
2018-06-14T03:13:25.126Z,15.67
2018-06-14T03:15:53.766Z,15.69
2018-06-14T03:18:22.686Z,15.59
2018-06-14T03:20:51.315Z,15.63
2018-06-14T03:23:19.974Z,15.79
2018-06-14T03:25:48.666Z,15.72
2018-06-14T03:28:17.294Z,15.60
2018-06-14T03:30:46.014Z,15.58
2018-06-14T03:33:14.587Z,15.59
2018-06-14T03:35:43.212Z,15.70
2018-06-14T03:38:11.865Z,15.72
2018-06-14T03:40:40.490Z,15.58
2018-06-14T03:43:09.246Z,15.63
2018-06-14T03:45:38.116Z,15.61
2018-06-14T03:48:07.355Z,15.66
2018-06-14T03:50:35.949Z,15.74
2018-06-14T03:53:04.625Z,15.76
2018-06-14T03:55:33.201Z,15.71
2018-06-14T03:58:01.771Z,15.61
2018-06-14T04:00:30.496Z,15.69
2018-06-14T04:02:59.098Z,15.67
2018-06-14T04:05:27.745Z,15.68
2018-06-14T04:07:56.353Z,15.67
2018-06-14T04:10:25.863Z,15.64
2018-06-14T04:12:54.425Z,15.76
2018-06-14T04:15:23.049Z,15.61
2018-06-14T04:18:00.852Z,15.63
2018-06-14T04:20:29.692Z,15.78
2018-06-14T04:22:58.426Z,15.66
2018-06-14T04:25:27.062Z,15.64
2018-06-14T04:27:55.691Z,15.66
2018-06-14T04:30:24.419Z,15.70
2018-06-14T04:32:54.028Z,15.69
2018-06-14T04:35:22.608Z,15.75
2018-06-14T04:37:51.460Z,15.80
2018-06-14T04:40:20.147Z,15.78
2018-06-14T04:42:48.764Z,15.79
2018-06-14T04:45:17.485Z,15.72
2018-06-14T04:47:46.696Z,15.94
2018-06-14T04:50:15.373Z,15.79
2018-06-14T04:52:44.024Z,15.91
2018-06-14T04:55:12.643Z,15.96
2018-06-14T04:57:41.445Z,15.94
2018-06-14T05:00:10.402Z,16.11
2018-06-14T05:02:39.301Z,15.87
2018-06-14T05:05:08.193Z,15.87
2018-06-14T05:07:36.795Z,15.94
2018-06-14T05:10:05.504Z,15.89
2018-06-14T05:12:34.122Z,15.98
2018-06-14T05:15:02.723Z,16.00
2018-06-14T05:17:31.377Z,15.97
2018-06-14T05:20:00.027Z,15.99
2018-06-14T05:22:28.613Z,16.00
2018-06-14T05:24:57.221Z,15.84
2018-06-14T05:27:25.878Z,15.87
2018-06-14T05:29:54.496Z,15.89
2018-06-14T05:32:23.097Z,16.07
2018-06-14T05:34:51.754Z,16.13
2018-06-14T05:37:20.309Z,16.13
2018-06-14T05:39:49.001Z,16.16
2018-06-14T05:42:17.610Z,16.13
2018-06-14T05:44:46.294Z,16.19
2018-06-14T05:47:14.923Z,16.36
2018-06-14T05:49:44.152Z,16.39
2018-06-14T05:52:12.789Z,16.52
2018-06-14T05:54:41.393Z,16.66
2018-06-14T05:57:09.978Z,16.42
2018-06-14T05:59:38.627Z,16.56
2018-06-14T06:02:07.360Z,16.43
2018-06-14T06:04:35.967Z,16.36
2018-06-14T06:07:04.585Z,16.42
2018-06-14T06:09:33.201Z,16.35
2018-06-14T06:12:01.905Z,16.29
2018-06-14T06:14:30.457Z,16.37
2018-06-14T06:16:59.735Z,16.45
2018-06-14T06:19:28.319Z,16.26
2018-06-14T06:21:58.402Z,16.29
2018-06-14T06:24:27.054Z,16.29
2018-06-14T06:26:55.673Z,16.07
2018-06-14T06:29:24.392Z,16.18
2018-06-14T06:31:53.012Z,16.15
2018-06-14T06:34:21.700Z,16.07
2018-06-14T06:36:50.281Z,16.05
2018-06-14T06:39:18.943Z,16.22
2018-06-14T06:41:47.554Z,16.25
2018-06-14T06:44:16.157Z,16.37
2018-06-14T06:46:44.791Z,16.30
2018-06-14T06:49:13.378Z,16.20
2018-06-14T06:51:42.009Z,16.12
2018-06-14T06:54:10.601Z,16.30
2018-06-14T06:56:39.245Z,16.21
2018-06-14T06:59:07.860Z,16.28
2018-06-14T07:01:36.485Z,16.33
2018-06-14T07:04:05.248Z,16.63
2018-06-14T07:06:33.925Z,16.50
2018-06-14T07:09:02.568Z,16.67
2018-06-14T07:11:31.248Z,16.62
2018-06-14T07:13:59.778Z,16.79
2018-06-14T07:16:28.414Z,16.85
2018-06-14T07:18:57.033Z,16.68
2018-06-14T07:21:25.658Z,16.99
2018-06-14T07:23:54.329Z,16.86
2018-06-14T07:26:22.967Z,16.86
2018-06-14T07:28:52.346Z,17.04
2018-06-14T07:31:20.966Z,17.03
2018-06-14T07:33:49.529Z,16.91
2018-06-14T07:36:18.113Z,17.07
2018-06-14T07:38:46.716Z,17.11
2018-06-14T07:41:15.376Z,17.23
2018-06-14T07:43:44.019Z,17.28
2018-06-14T07:46:12.812Z,17.27
2018-06-14T07:48:41.441Z,17.03
2018-06-14T07:51:10.225Z,17.23
2018-06-14T07:53:39.025Z,17.29
2018-06-14T07:56:07.705Z,17.41
2018-06-14T07:58:36.572Z,17.35
2018-06-14T08:01:05.217Z,17.20
2018-06-14T08:03:33.809Z,17.31
2018-06-14T08:06:02.411Z,17.34
2018-06-14T08:08:31.166Z,17.29
2018-06-14T08:10:59.838Z,17.20
2018-06-14T08:13:28.462Z,17.44
2018-06-14T08:15:57.080Z,17.56
2018-06-14T08:18:25.752Z,17.80
2018-06-14T08:20:54.363Z,17.85
2018-06-14T08:23:23.045Z,17.55
2018-06-14T08:25:51.675Z,18.25
2018-06-14T08:28:20.323Z,18.47
2018-06-14T08:30:49.022Z,18.57
2018-06-14T08:33:17.680Z,18.74
2018-06-14T08:35:46.354Z,18.66
2018-06-14T08:38:15.051Z,18.74
2018-06-14T08:40:43.773Z,19.11
2018-06-14T08:43:12.440Z,18.86
2018-06-14T08:45:41.220Z,19.03
2018-06-14T08:48:09.979Z,18.92
2018-06-14T08:50:38.646Z,18.81
2018-06-14T08:53:07.351Z,18.67
2018-06-14T08:55:36.001Z,18.74
2018-06-14T08:58:04.722Z,18.73
2018-06-14T09:00:34.042Z,18.58
2018-06-14T09:03:02.721Z,19.18
2018-06-14T09:05:31.295Z,19.65
2018-06-14T09:08:00.023Z,19.68
2018-06-14T09:10:28.704Z,19.58
2018-06-14T09:12:57.374Z,19.14
2018-06-14T09:15:26.038Z,19.40
2018-06-14T09:17:54.687Z,19.61
2018-06-14T09:20:23.365Z,19.60
2018-06-14T09:22:52.113Z,19.98
2018-06-14T09:25:21.777Z,20.13
2018-06-14T09:27:50.455Z,19.99
2018-06-14T09:30:19.130Z,20.43
2018-06-14T09:32:47.733Z,20.79
2018-06-14T09:35:16.422Z,20.65
2018-06-14T09:37:45.084Z,20.72
2018-06-14T09:40:13.770Z,20.50
2018-06-14T09:42:42.511Z,20.72
2018-06-14T09:45:11.142Z,20.35
2018-06-14T09:47:40.033Z,20.26
2018-06-14T09:50:08.647Z,19.82
2018-06-14T09:52:37.261Z,19.99
2018-06-14T09:55:05.921Z,20.10
2018-06-14T09:57:34.631Z,20.09
2018-06-14T10:00:03.316Z,19.94
2018-06-14T10:02:32.794Z,19.71
2018-06-14T10:05:01.519Z,19.92
2018-06-14T10:07:30.155Z,19.81
2018-06-14T10:09:58.802Z,19.61
2018-06-14T10:12:27.413Z,19.46
2018-06-14T10:14:56.126Z,19.64
2018-06-14T10:17:24.849Z,19.35
2018-06-14T10:19:53.746Z,19.60
2018-06-14T10:22:22.361Z,19.76
2018-06-14T10:24:51.082Z,19.61
2018-06-14T10:27:19.751Z,19.75
2018-06-14T10:29:48.566Z,19.55
2018-06-14T10:32:18.931Z,19.75
2018-06-14T10:34:47.630Z,19.11
2018-06-14T10:37:16.348Z,19.36
2018-06-14T10:39:45.041Z,18.96
2018-06-14T10:42:13.732Z,18.46
2018-06-14T10:44:42.400Z,18.22
2018-06-14T10:47:11.654Z,18.20
2018-06-14T10:49:40.719Z,18.39
2018-06-14T10:52:09.484Z,18.61
2018-06-14T10:54:39.276Z,18.63
2018-06-14T10:57:09.238Z,18.51
2018-06-14T10:59:37.935Z,18.36
2018-06-14T11:02:06.628Z,18.22
2018-06-14T11:04:35.260Z,18.16
2018-06-14T11:07:03.983Z,18.06
2018-06-14T11:09:32.742Z,18.18
2018-06-14T11:12:01.441Z,17.96
2018-06-14T11:14:30.217Z,18.40
2018-06-14T11:16:58.828Z,18.48
2018-06-14T11:19:27.673Z,18.46
2018-06-14T11:21:56.391Z,18.58
2018-06-14T11:24:25.037Z,18.63
2018-06-14T11:26:53.758Z,18.72
2018-06-14T11:29:22.442Z,18.61
2018-06-14T11:31:51.159Z,18.61
2018-06-14T11:34:19.902Z,18.72
2018-06-14T11:36:53.284Z,18.72
2018-06-14T11:39:31.311Z,18.79
2018-06-14T11:42:00.437Z,18.94
2018-06-14T11:47:06.492Z,18.76
2018-06-14T11:49:35.395Z,19.05
2018-06-14T11:52:04.895Z,19.20
2018-06-14T11:54:34.296Z,19.10
2018-06-14T11:57:03.163Z,18.85
2018-06-14T11:59:32.107Z,19.11
2018-06-14T12:02:01.597Z,19.39
2018-06-14T12:04:30.809Z,19.34
2018-06-14T12:06:59.693Z,19.53
2018-06-14T12:09:28.449Z,19.36
2018-06-14T12:11:57.226Z,19.55
2018-06-14T12:14:25.914Z,19.60
2018-06-14T12:16:54.771Z,19.48
2018-06-14T12:19:23.530Z,19.47
2018-06-14T12:21:58.687Z,19.82
2018-06-14T12:27:05.853Z,19.97
2018-06-14T12:29:34.593Z,19.91
2018-06-14T12:32:03.265Z,19.53
2018-06-14T12:34:31.991Z,19.88
2018-06-14T12:37:00.718Z,19.96
2018-06-14T12:39:29.471Z,20.09
2018-06-14T12:41:58.229Z,20.16
2018-06-14T12:44:27.426Z,20.07
2018-06-14T12:46:56.213Z,20.47
2018-06-14T12:49:24.952Z,20.72
2018-06-14T12:51:53.991Z,20.81
2018-06-14T12:54:22.769Z,20.62
2018-06-14T12:56:51.574Z,20.84
2018-06-14T12:59:20.324Z,20.72
2018-06-14T13:01:49.048Z,21.30
2018-06-14T13:04:18.243Z,21.10
2018-06-14T13:06:47.090Z,21.34
2018-06-14T13:09:16.001Z,21.58
2018-06-14T13:11:44.798Z,21.33
2018-06-14T13:14:13.596Z,21.07
2018-06-14T13:16:42.320Z,20.93
2018-06-14T13:19:11.084Z,21.05
2018-06-14T13:21:40.500Z,20.47
2018-06-14T13:24:09.618Z,20.07
2018-06-14T13:26:39.723Z,20.26
2018-06-14T13:41:58.762Z,20.33
2018-06-14T13:44:27.510Z,20.57
2018-06-14T13:46:56.216Z,20.31
2018-06-14T13:49:25.010Z,20.05
2018-06-14T13:51:55.141Z,20.27
2018-06-14T13:54:23.986Z,20.18
2018-06-14T13:56:52.787Z,19.93
2018-06-14T13:59:21.580Z,19.93
2018-06-14T14:01:50.365Z,19.82
2018-06-14T14:04:19.126Z,20.06
2018-06-14T14:06:48.002Z,20.25
2018-06-14T14:09:16.706Z,20.40
2018-06-14T14:11:45.464Z,20.23
2018-06-14T14:14:14.145Z,20.65
2018-06-14T14:16:42.806Z,20.60
2018-06-14T14:19:11.450Z,20.33
2018-06-14T14:21:40.074Z,20.21
2018-06-14T14:24:08.797Z,20.09
2018-06-14T14:26:37.722Z,20.29
2018-06-14T14:29:06.445Z,20.22
2018-06-14T14:31:35.129Z,20.29
2018-06-14T14:34:03.971Z,20.37
2018-06-14T14:36:33.237Z,20.25
2018-06-14T14:39:01.916Z,20.42
2018-06-14T14:41:30.603Z,20.26
2018-06-14T14:43:59.271Z,19.95
2018-06-14T14:46:27.968Z,19.94
2018-06-14T14:48:56.650Z,19.88
2018-06-14T14:51:25.337Z,19.98
2018-06-14T14:53:54.229Z,19.90
2018-06-14T14:56:22.858Z,20.00
2018-06-14T14:58:51.526Z,20.23
2018-06-14T15:01:20.167Z,20.42
2018-06-14T15:03:48.822Z,20.38
2018-06-14T15:06:18.484Z,20.36
2018-06-14T15:08:47.281Z,20.53
2018-06-14T15:11:16.027Z,20.16
2018-06-14T15:13:44.654Z,20.26
2018-06-14T15:16:13.334Z,20.26
2018-06-14T15:18:42.017Z,20.29
2018-06-14T15:21:10.643Z,20.49
2018-06-14T15:23:39.259Z,20.53
2018-06-14T15:26:08.093Z,20.96
2018-06-14T15:28:36.750Z,21.17
2018-06-14T15:31:05.406Z,21.18
2018-06-14T15:33:34.121Z,21.18
2018-06-14T15:36:02.832Z,21.09
2018-06-14T15:38:31.510Z,21.02
2018-06-14T15:41:00.175Z,20.87
2018-06-14T15:43:28.806Z,21.01
2018-06-14T15:45:57.478Z,21.38
2018-06-14T15:48:26.818Z,21.35
2018-06-14T15:50:55.512Z,22.22
2018-06-14T15:53:24.195Z,21.96
2018-06-14T15:56:07.289Z,21.74
2018-06-14T15:58:35.977Z,21.68
2018-06-14T16:01:05.090Z,21.97
2018-06-14T16:03:33.779Z,22.04
2018-06-14T16:06:02.687Z,21.86
2018-06-14T16:08:31.686Z,21.53
2018-06-14T16:11:00.370Z,21.05
2018-06-14T16:13:29.051Z,20.94
2018-06-14T16:15:57.733Z,20.52
2018-06-14T16:18:26.439Z,20.55
2018-06-14T16:20:55.150Z,20.57
2018-06-14T16:23:23.882Z,20.40
2018-06-14T16:25:52.599Z,20.34
2018-06-14T16:28:21.327Z,20.19
2018-06-14T16:30:49.950Z,20.12
2018-06-14T16:33:18.635Z,19.97
2018-06-14T16:35:47.287Z,20.03
2018-06-14T16:38:15.969Z,19.87
2018-06-14T16:40:44.634Z,19.83
2018-06-14T16:43:13.334Z,19.80
2018-06-14T16:45:41.987Z,19.75
2018-06-14T16:48:10.694Z,19.69
2018-06-14T16:50:39.347Z,19.60
2018-06-14T16:53:07.985Z,19.70
2018-06-14T16:55:36.631Z,19.48
2018-06-14T16:58:05.401Z,19.46
2018-06-14T17:00:34.050Z,19.35
2018-06-14T17:03:02.753Z,19.31
2018-06-14T17:05:31.962Z,19.10
2018-06-14T17:08:00.637Z,19.19
2018-06-14T17:10:29.238Z,19.15
2018-06-14T17:12:57.848Z,19.18
2018-06-14T17:15:26.482Z,19.19
2018-06-14T17:17:55.113Z,19.04
2018-06-14T17:20:23.771Z,19.12
2018-06-14T17:22:52.357Z,19.12
2018-06-14T17:25:21.743Z,19.13
2018-06-14T17:27:50.362Z,19.08
2018-06-14T17:30:19.052Z,19.09
2018-06-14T17:32:47.731Z,19.08
2018-06-14T17:35:16.405Z,18.99
2018-06-14T17:37:45.092Z,18.93
2018-06-14T17:40:13.746Z,18.93
2018-06-14T17:42:42.423Z,18.91
2018-06-14T17:45:11.655Z,18.85
2018-06-14T17:47:40.316Z,18.75
2018-06-14T17:50:09.066Z,18.79
2018-06-14T17:52:37.686Z,18.78
2018-06-14T17:55:06.377Z,18.72
2018-06-14T17:57:35.244Z,18.53
2018-06-14T18:00:03.969Z,18.60
2018-06-14T18:02:32.593Z,18.62
2018-06-14T18:05:01.292Z,18.56
2018-06-14T18:07:31.635Z,18.65
2018-06-14T18:10:03.505Z,18.56
2018-06-14T18:12:32.793Z,18.69
2018-06-14T18:15:01.458Z,18.63
2018-06-14T18:17:30.118Z,18.60
2018-06-14T18:19:58.831Z,18.59
2018-06-14T18:22:27.482Z,18.55
2018-06-14T18:24:56.143Z,18.59
2018-06-14T18:27:24.820Z,18.55
2018-06-14T18:29:53.479Z,18.45
2018-06-14T18:32:22.133Z,18.37
2018-06-14T18:34:50.805Z,18.28
2018-06-14T18:37:19.550Z,18.22
2018-06-14T18:39:48.194Z,18.18
2018-06-14T18:42:16.825Z,18.22
2018-06-14T18:44:45.483Z,18.24
2018-06-14T18:47:14.195Z,18.07
2018-06-14T18:49:42.833Z,18.09
2018-06-14T18:52:11.423Z,18.08
2018-06-14T18:54:40.049Z,18.05
2018-06-14T18:57:08.706Z,17.97
2018-06-14T18:59:38.089Z,17.92
2018-06-14T19:02:06.750Z,17.98
2018-06-14T19:04:35.385Z,17.97
2018-06-14T19:07:04.069Z,17.84
2018-06-14T19:09:32.739Z,17.83
2018-06-14T19:12:01.329Z,17.81
2018-06-14T19:14:30.032Z,17.83
2018-06-14T19:16:58.701Z,17.82
2018-06-14T19:19:27.350Z,17.76
2018-06-14T19:21:56.050Z,17.74
2018-06-14T19:24:24.719Z,17.63
2018-06-14T19:26:53.347Z,17.64
2018-06-14T19:29:22.285Z,17.64
2018-06-14T19:31:50.946Z,17.68
2018-06-14T19:34:19.656Z,17.60
2018-06-14T19:36:48.297Z,17.59
2018-06-14T19:39:16.909Z,17.66
2018-06-14T19:41:45.599Z,17.58
2018-06-14T19:44:14.256Z,17.61
2018-06-14T19:46:42.908Z,17.49
2018-06-14T19:49:11.524Z,17.50
2018-06-14T19:51:40.149Z,17.41
2018-06-14T19:54:08.838Z,17.46
2018-06-14T19:56:39.496Z,17.46
2018-06-14T20:12:04.103Z,17.24
2018-06-14T20:14:32.822Z,17.24
2018-06-14T20:17:01.490Z,17.27
2018-06-14T20:19:30.141Z,17.24
2018-06-14T20:21:59.732Z,17.23
2018-06-14T20:24:28.932Z,17.19
2018-06-14T20:26:59.822Z,17.28
2018-06-14T20:29:28.492Z,17.21
2018-06-14T20:31:57.227Z,17.16
2018-06-14T20:34:25.980Z,17.16
2018-06-14T20:36:54.892Z,17.17
2018-06-14T20:39:23.732Z,17.13
2018-06-14T20:41:52.409Z,17.18
2018-06-14T20:44:21.841Z,17.17
2018-06-14T20:46:50.530Z,17.14
2018-06-14T20:49:19.150Z,17.08
2018-06-14T20:51:47.802Z,17.09
2018-06-14T20:54:16.388Z,17.05
2018-06-14T20:56:45.055Z,17.10
2018-06-14T20:59:13.694Z,17.05
2018-06-14T21:01:42.321Z,17.04
2018-06-14T21:04:11.847Z,17.03
2018-06-14T21:06:41.161Z,17.02
2018-06-14T21:09:10.845Z,17.03
2018-06-14T21:11:39.565Z,16.93
2018-06-14T21:14:08.249Z,17.05
2018-06-14T21:16:37.754Z,17.02
2018-06-14T21:19:06.558Z,16.95
2018-06-14T21:21:35.262Z,16.84
2018-06-14T21:24:03.914Z,16.89
2018-06-14T21:26:32.577Z,16.85
2018-06-14T21:29:03.122Z,16.78
2018-06-14T21:31:31.806Z,16.76
2018-06-14T21:34:00.458Z,16.77
2018-06-14T21:36:30.532Z,16.73
2018-06-14T21:38:59.488Z,16.71
2018-06-14T21:41:28.098Z,16.71
2018-06-14T21:43:56.753Z,16.76
2018-06-14T21:46:25.377Z,16.72
2018-06-14T21:48:54.087Z,16.68
2018-06-14T21:51:22.696Z,16.77
2018-06-14T21:53:51.348Z,16.69
2018-06-14T21:56:19.945Z,16.69
2018-06-14T21:58:48.713Z,16.63
2018-06-14T22:01:17.438Z,16.64
2018-06-14T22:03:51.260Z,16.47
2018-06-14T22:06:19.787Z,16.51
2018-06-14T22:08:48.416Z,16.52
2018-06-14T22:11:17.064Z,16.61
2018-06-14T22:13:45.719Z,16.52
2018-06-14T22:16:14.425Z,16.43
2018-06-14T22:18:43.123Z,16.44
2018-06-14T22:21:11.801Z,16.49
2018-06-14T22:23:40.454Z,16.45
2018-06-14T22:26:09.173Z,16.43
2018-06-14T22:28:37.764Z,16.47
2018-06-14T22:31:06.478Z,16.48
2018-06-14T22:33:46.048Z,16.43
2018-06-14T22:36:14.659Z,16.46
2018-06-14T22:38:43.297Z,16.49
2018-06-14T22:41:12.009Z,16.49
2018-06-14T22:43:40.649Z,16.55
2018-06-14T22:46:09.270Z,16.47
2018-06-14T22:48:37.865Z,16.51
2018-06-14T22:51:19.273Z,16.46
2018-06-14T22:53:47.954Z,16.53
2018-06-14T22:56:16.595Z,16.39
2018-06-14T22:58:45.651Z,16.44
2018-06-14T23:01:48.448Z,16.35
2018-06-14T23:04:27.848Z,16.36
2018-06-14T23:06:56.769Z,16.34
2018-06-14T23:10:39.156Z,16.46
2018-06-14T23:13:08.906Z,16.48
2018-06-14T23:15:40.443Z,16.41
2018-06-14T23:18:09.754Z,16.48
2018-06-14T23:20:38.594Z,16.45
2018-06-14T23:23:07.794Z,16.36
2018-06-14T23:25:37.058Z,16.35
2018-06-14T23:28:06.411Z,16.31
2018-06-14T23:30:35.111Z,16.37
2018-06-14T23:33:03.877Z,16.25
2018-06-14T23:35:32.695Z,16.42
2018-06-14T23:38:01.642Z,16.35
2018-06-14T23:40:32.050Z,16.40
2018-06-14T23:43:00.866Z,16.44
2018-06-14T23:45:30.203Z,16.46
2018-06-14T23:47:58.810Z,16.47
2018-06-14T23:50:27.431Z,16.52
2018-06-14T23:52:56.138Z,16.55
2018-06-14T23:55:25.371Z,16.47
2018-06-14T23:57:54.007Z,16.57
